Time;durP1;ratioP1;P1;durP2;ratioP2;P2;SDS_P1;SDS_P2;PMS_P1;PMS_P2;Temp;Humidity;BMP_temperature;BMP_pressure;BME280_temperature;BME280_humidity;BME280_pressure;Samples;Min_cycle;Max_cycle;Signal;HPM_P1;HPM_P2
2021/06/12 00:01:16;;;;;;;10.98;9.85;;;;;;;15.34;84.59;99257.66;4998574;28;20427;-72
2021/06/12 00:03:41;;;;;;;11.48;10.27;;;;;;;15.31;84.53;99256.09;4998654;28;20057;-70
2021/06/12 00:06:07;;;;;;;11.52;10.32;;;;;;;15.30;84.71;99249.13;5002982;28;20168;-68
2021/06/12 00:08:34;;;;;;;12.32;10.20;;;;;;;15.30;84.93;99254.47;5005234;28;20034;-68
2021/06/12 00:11:01;;;;;;;11.52;9.73;;;;;;;15.39;84.78;99250.00;5007807;28;20066;-70
2021/06/12 00:13:27;;;;;;;11.23;9.80;;;;;;;15.41;84.70;99249.84;4998839;28;20066;-70
2021/06/12 00:15:54;;;;;;;12.23;10.93;;;;;;;15.32;84.70;99246.31;4994459;28;20105;-70
2021/06/12 00:18:20;;;;;;;12.18;10.77;;;;;;;15.37;84.86;99250.13;5011644;28;20061;-69
2021/06/12 00:20:46;;;;;;;12.52;11.23;;;;;;;15.39;84.50;99247.34;5009888;28;20486;-69
2021/06/12 00:23:12;;;;;;;11.95;10.75;;;;;;;15.36;84.31;99253.81;5012272;28;20403;-70
2021/06/12 00:25:38;;;;;;;11.20;9.88;;;;;;;15.34;84.56;99247.00;5007228;28;20545;-70
2021/06/12 00:28:05;;;;;;;11.88;10.55;;;;;;;15.41;84.45;99249.84;4995361;28;20092;-69
2021/06/12 00:30:32;;;;;;;11.90;10.67;;;;;;;15.43;84.26;99247.84;4997281;28;20040;-69
2021/06/12 00:33:14;;;;;;;12.85;10.60;;;;;;;15.39;84.24;99244.66;4994763;28;20833;-68
2021/06/12 00:35:40;;;;;;;11.85;10.38;;;;;;;15.33;84.04;99240.81;5006066;28;20132;-68
2021/06/12 00:38:08;;;;;;;13.25;11.85;;;;;;;15.24;84.70;99239.09;4995524;28;20109;-69
2021/06/12 00:40:35;;;;;;;11.98;10.65;;;;;;;15.22;85.03;99222.44;4996073;28;20038;-69
2021/06/12 00:43:02;;;;;;;11.75;10.48;;;;;;;15.30;84.94;99232.28;4996976;28;20041;-69
2021/06/12 00:45:30;;;;;;;12.00;10.70;;;;;;;15.32;84.55;99228.47;4994975;28;20041;-68
2021/06/12 00:47:56;;;;;;;;;;;;;;;15.32;84.35;99220.47;4996601;28;20475;-68
2021/06/12 00:50:25;;;;;;;12.77;10.32;;;;;;;15.28;84.57;99223.66;5003452;28;19925;-67
2021/06/12 00:52:50;;;;;;;13.13;10.77;;;;;;;15.27;84.46;99228.13;5010889;28;20065;-68
2021/06/12 00:55:17;;;;;;;13.82;10.25;;;;;;;15.27;84.46;99225.47;4993483;28;20060;-68
2021/06/12 00:57:44;;;;;;;12.80;10.38;;;;;;;15.27;84.63;99228.13;5009601;28;20466;-69
2021/06/12 01:00:16;;;;;;;14.18;10.32;;;;;;;15.24;84.69;99231.13;4993562;28;20097;-69
2021/06/12 01:02:42;;;;;;;13.48;10.38;;;;;;;15.29;84.35;99228.81;5009803;28;20558;-71
2021/06/12 01:05:10;;;;;;;14.23;10.23;;;;;;;15.33;84.34;99232.00;5000260;28;20036;-70
2021/06/12 01:07:36;;;;;;;12.05;10.07;;;;;;;15.33;84.30;99230.16;4993991;28;20077;-70
2021/06/12 01:10:03;;;;;;;13.45;10.85;;;;;;;15.32;84.44;99232.97;5006767;28;20458;-69
2021/06/12 01:12:35;;;;;;;;;;;;;;;15.31;84.33;99234.78;5005930;28;20060;-69
2021/06/12 01:15:04;;;;;;;15.70;11.27;;;;;;;15.29;84.74;99228.81;4992738;28;20224;-69
2021/06/12 01:17:58;;;;;;;12.55;10.48;;;;;;;15.32;84.67;99225.81;4999310;28;20054;-71
2021/06/12 01:21:02;;;;;;;13.63;10.25;;;;;;;15.42;84.70;99232.84;5010437;28;20053;-69
2021/06/12 01:23:49;;;;;;;11.82;9.45;;;;;;;15.54;83.97;99231.56;4999420;28;20050;-70
2021/06/12 01:26:40;;;;;;;12.60;10.45;;;;;;;15.56;83.98;99229.56;4992983;28;20039;-70
2021/06/12 01:29:22;;;;;;;12.15;10.68;;;;;;;15.54;83.84;99234.22;4991846;28;20060;-69
2021/06/12 01:31:50;;;;;;;11.52;10.15;;;;;;;15.54;83.73;99228.91;4992267;28;20069;-70
2021/06/12 01:34:17;;;;;;;12.05;10.07;;;;;;;15.49;83.75;99231.22;4996771;28;20182;-70
2021/06/12 01:36:43;;;;;;;14.23;10.57;;;;;;;15.53;83.64;99233.38;4991941;28;20042;-69
2021/06/12 01:39:09;;;;;;;13.57;10.20;;;;;;;15.53;83.89;99233.38;5003715;28;20030;-70
2021/06/12 01:41:36;;;;;;;13.75;11.40;;;;;;;15.59;83.95;99231.06;4998321;28;20084;-70
2021/06/12 01:44:02;;;;;;;12.25;10.35;;;;;;;15.60;83.72;99227.41;4995984;28;20041;-69
2021/06/12 01:46:29;;;;;;;10.50;9.30;;;;;;;15.64;83.96;99231.44;5006431;28;20501;-70
2021/06/12 01:48:58;;;;;;;10.90;9.80;;;;;;;15.68;83.92;99230.09;4998108;28;20483;-69
2021/06/12 01:51:25;;;;;;;14.82;10.18;;;;;;;15.78;83.86;99229.97;5008759;28;20053;-68
2021/06/12 01:53:54;;;;;;;14.13;10.75;;;;;;;15.87;83.63;99234.34;5005856;28;20483;-70
2021/06/12 01:56:24;;;;;;;13.18;11.77;;;;;;;15.78;83.23;99235.31;5000930;28;20038;-71
2021/06/12 01:58:49;;;;;;;13.23;10.75;;;;;;;15.84;83.36;99232.84;5008833;28;20040;-71
2021/06/12 02:01:17;;;;;;;12.80;11.13;;;;;;;15.92;82.92;99241.84;4992319;28;20034;-68
2021/06/12 02:03:45;;;;;;;12.80;11.50;;;;;;;15.88;82.64;99241.34;5000381;28;20038;-72
2021/06/12 02:06:13;;;;;;;13.73;11.40;;;;;;;15.82;82.71;99232.16;4991467;28;20038;-69
2021/06/12 02:08:42;;;;;;;12.07;10.77;;;;;;;15.92;82.67;99224.00;4992803;28;20153;-70
2021/06/12 02:11:11;;;;;;;14.55;11.48;;;;;;;15.95;82.49;99223.69;5003638;28;20034;-68
2021/06/12 02:13:37;;;;;;;13.27;11.43;;;;;;;16.02;82.35;99226.53;4994344;28;20042;-68
2021/06/12 02:16:04;;;;;;;13.38;11.27;;;;;;;15.97;82.54;99228.88;5001678;28;20046;-71
2021/06/12 02:18:29;;;;;;;12.10;10.88;;;;;;;15.90;82.46;99218.03;5007342;28;20037;-72
2021/06/12 02:20:57;;;;;;;14.82;11.38;;;;;;;15.98;82.34;99215.34;5007311;28;20026;-71
2021/06/12 02:23:24;;;;;;;15.03;10.13;;;;;;;16.01;82.03;99217.72;4997603;28;20121;-71
2021/06/12 02:25:51;;;;;;;13.20;11.18;;;;;;;16.03;81.64;99211.38;4995762;28;20030;-70
2021/06/12 02:28:17;;;;;;;11.98;10.23;;;;;;;16.00;81.59;99218.69;4984091;28;20042;-69
2021/06/12 02:30:46;;;;;;;13.48;12.07;;;;;;;16.10;81.30;99212.34;4994714;28;20164;-68
2021/06/12 02:33:15;;;;;;;13.38;11.43;;;;;;;16.11;80.96;99214.88;5007504;28;20042;-70
2021/06/12 02:35:41;;;;;;;14.32;11.13;;;;;;;16.05;81.10;99215.53;5002921;28;20125;-71
2021/06/12 02:38:07;;;;;;;14.50;10.73;;;;;;;16.03;81.23;99214.03;4992345;28;20145;-72
2021/06/12 02:40:33;;;;;;;11.50;10.23;;;;;;;16.13;81.39;99215.53;4995566;28;21571;-70
2021/06/12 02:42:59;;;;;;;13.65;10.82;;;;;;;16.12;81.44;99218.38;4997149;28;20038;-73
2021/06/12 02:45:27;;;;;;;13.48;11.05;;;;;;;15.99;81.60;99218.88;5012549;28;20494;-70
2021/06/12 02:48:02;;;;;;;13.25;11.27;;;;;;;16.04;81.63;99224.53;5010141;28;20048;-72
2021/06/12 02:50:32;;;;;;;12.82;10.05;;;;;;;16.09;81.60;99224.88;4999314;28;20044;-71
2021/06/12 02:53:02;;;;;;;13.48;10.60;;;;;;;16.00;81.93;99224.03;5008676;28;20129;-68
2021/06/12 02:55:29;;;;;;;14.07;11.32;;;;;;;15.98;82.26;99219.88;5012591;28;20497;-70
2021/06/12 02:57:55;;;;;;;14.13;11.20;;;;;;;15.97;82.22;99227.00;5015641;28;20037;-72
2021/06/12 03:00:22;;;;;;;13.27;11.27;;;;;;;15.98;82.35;99226.03;5028318;28;20383;-71
2021/06/12 03:02:48;;;;;;;14.60;11.77;;;;;;;15.95;82.35;99221.03;5015497;28;20695;-69
2021/06/12 03:05:17;;;;;;;12.82;11.20;;;;;;;15.93;82.49;99223.00;5007925;28;20361;-70
2021/06/12 03:07:48;;;;;;;13.75;11.48;;;;;;;15.92;82.45;99225.84;4995730;28;20049;-72
2021/06/12 03:10:16;;;;;;;19.25;11.55;;;;;;;15.94;82.24;99229.19;4994413;28;20348;-72
2021/06/12 03:12:43;;;;;;;15.90;11.43;;;;;;;15.91;82.24;99230.34;5006529;28;20034;-69
2021/06/12 03:15:10;;;;;;;13.00;11.40;;;;;;;15.93;82.21;99228.34;5012073;28;20505;-70
2021/06/12 03:17:36;;;;;;;12.52;11.18;;;;;;;15.94;82.22;99226.53;5015480;28;20046;-71
2021/06/12 03:20:03;;;;;;;13.32;11.52;;;;;;;16.00;82.14;99223.22;5000430;28;20053;-70
2021/06/12 03:22:29;;;;;;;15.67;12.30;;;;;;;16.06;81.80;99219.03;5007742;28;20066;-70
2021/06/12 03:24:55;;;;;;;14.05;12.05;;;;;;;16.11;81.45;99227.38;5011269;28;20041;-69
2021/06/12 03:27:21;;;;;;;15.50;12.50;;;;;;;16.12;81.56;99226.38;4995013;28;20141;-71
2021/06/12 03:29:47;;;;;;;14.48;12.65;;;;;;;16.05;81.61;99223.53;4994249;28;20121;-70
2021/06/12 03:32:13;;;;;;;15.35;12.15;;;;;;;16.08;81.49;99217.88;5004728;28;20042;-72
2021/06/12 03:34:39;;;;;;;17.02;13.18;;;;;;;16.09;81.47;99221.38;5000188;28;20092;-71
2021/06/12 03:37:06;;;;;;;15.48;13.10;;;;;;;16.09;81.77;99216.06;5000530;28;20038;-70
2021/06/12 03:39:32;;;;;;;15.90;13.18;;;;;;;16.13;81.54;99217.38;4994485;28;20043;-71
2021/06/12 03:41:58;;;;;;;13.52;12.13;;;;;;;16.21;81.47;99220.03;5011190;28;20046;-68
2021/06/12 03:44:25;;;;;;;17.33;13.15;;;;;;;16.29;81.14;99219.22;5010004;28;20049;-68
2021/06/12 03:46:53;;;;;;;15.87;12.90;;;;;;;16.33;81.21;99218.69;5012710;28;20041;-68
2021/06/12 03:49:19;;;;;;;15.63;12.98;;;;;;;16.39;80.60;99219.88;5005932;28;20042;-71
2021/06/12 03:51:46;;;;;;;19.40;13.93;;;;;;;16.43;80.12;99221.22;5002248;28;20042;-70
2021/06/12 03:54:13;;;;;;;20.23;13.02;;;;;;;16.48;79.77;99218.03;4994880;28;20038;-71
2021/06/12 03:56:40;;;;;;;18.95;14.43;;;;;;;16.50;79.91;99218.72;4998233;28;20072;-69
2021/06/12 03:59:08;;;;;;;18.67;13.07;;;;;;;16.49;79.63;99217.88;5006201;28;20494;-71
2021/06/12 04:01:34;;;;;;;17.90;13.20;;;;;;;16.56;79.90;99218.03;5003728;28;20033;-72
2021/06/12 04:04:00;;;;;;;22.42;13.68;;;;;;;16.68;79.59;99225.72;4994676;28;20387;-71
2021/06/12 04:06:25;;;;;;;24.25;13.90;;;;;;;16.75;79.03;99226.69;4996117;28;20034;-70
2021/06/12 04:08:51;;;;;;;25.67;13.48;;;;;;;16.77;79.15;99220.19;4996642;28;20500;-70
2021/06/12 04:11:17;;;;;;;17.67;13.85;;;;;;;16.87;79.01;99222.66;4994294;28;20041;-71
2021/06/12 04:13:43;;;;;;;19.67;13.75;;;;;;;17.00;78.34;99223.97;4994717;28;20535;-71
2021/06/12 04:16:09;;;;;;;18.08;14.25;;;;;;;17.06;78.17;99223.28;4994603;28;20066;-70
2021/06/12 04:18:36;;;;;;;16.73;13.43;;;;;;;16.99;78.13;99223.16;5011478;28;20034;-70
2021/06/12 04:21:03;;;;;;;15.45;12.50;;;;;;;17.08;77.97;99216.78;4999993;28;20038;-71
2021/06/12 04:23:28;;;;;;;16.90;13.45;;;;;;;17.05;77.90;99219.81;4999687;28;21175;-70
2021/06/12 04:25:54;;;;;;;15.15;12.15;;;;;;;17.17;77.60;99217.59;5004217;28;20038;-72
2021/06/12 04:28:20;;;;;;;14.63;12.00;;;;;;;17.37;76.98;99210.00;4995817;28;20026;-70
2021/06/12 04:30:46;;;;;;;12.80;11.38;;;;;;;17.46;76.35;99218.81;4996976;28;20148;-71
2021/06/12 04:33:12;;;;;;;12.07;10.65;;;;;;;17.52;75.76;99212.78;5011489;28;20495;-72
2021/06/12 04:35:38;;;;;;;13.02;10.85;;;;;;;17.53;75.59;99214.41;5004677;28;20038;-73
2021/06/12 04:38:03;;;;;;;13.10;11.60;;;;;;;17.55;75.68;99212.41;5001269;28;20063;-71
2021/06/12 04:40:33;;;;;;;14.02;12.18;;;;;;;17.59;75.15;99199.53;5013356;28;20129;-69
2021/06/12 04:43:18;;;;;;;13.75;11.90;;;;;;;17.74;75.49;99215.66;5008284;28;20041;-70
2021/06/12 04:45:44;;;;;;;14.02;11.43;;;;;;;17.83;75.25;99214.63;5006433;28;20057;-73
2021/06/12 04:48:10;;;;;;;13.90;10.48;;;;;;;17.90;74.72;99214.72;5004022;28;20443;-72
2021/06/12 04:50:38;;;;;;;13.00;10.52;;;;;;;18.10;74.39;99209.75;4995797;28;20071;-69
2021/06/12 04:53:05;;;;;;;11.85;10.57;;;;;;;18.22;74.05;99208.34;4993729;28;20479;-70
2021/06/12 04:55:31;;;;;;;13.60;10.98;;;;;;;18.21;73.41;99212.03;5005644;28;20033;-69
2021/06/12 04:57:57;;;;;;;15.85;11.13;;;;;;;18.14;73.66;99205.72;5003027;28;20393;-72
2021/06/12 05:00:23;;;;;;;12.52;10.90;;;;;;;18.18;73.41;99201.69;5003702;28;20074;-72
2021/06/12 05:02:49;;;;;;;13.48;10.55;;;;;;;18.21;73.44;99201.31;4993628;28;20379;-72
2021/06/12 05:05:15;;;;;;;16.50;12.35;;;;;;;18.16;73.80;99200.19;5009729;28;20041;-72
2021/06/12 05:07:41;;;;;;;17.30;12.82;;;;;;;18.22;73.81;99196.81;4998837;28;20034;-70
2021/06/12 05:10:08;;;;;;;15.35;12.15;;;;;;;18.48;73.18;99201.75;4996457;28;20149;-74
2021/06/12 05:12:35;;;;;;;16.45;13.00;;;;;;;18.46;72.93;99202.97;5000549;28;20037;-71
2021/06/12 05:15:02;;;;;;;16.73;13.10;;;;;;;18.63;72.80;99192.91;5005447;28;20046;-72
2021/06/12 05:17:29;;;;;;;17.52;13.23;;;;;;;18.98;71.91;99190.56;5004442;28;20029;-69
2021/06/12 05:19:55;;;;;;;19.23;13.50;;;;;;;19.11;71.09;99185.38;4999927;28;20034;-74
2021/06/12 05:22:28;;;;;;;15.23;12.98;;;;;;;19.30;70.82;99180.47;4992633;28;20073;-72
2021/06/12 05:24:55;;;;;;;14.48;12.25;;;;;;;19.52;70.19;99182.16;4992302;28;20030;-74
2021/06/12 05:27:21;;;;;;;18.33;12.63;;;;;;;19.44;69.54;99184.13;4998992;28;20041;-70
2021/06/12 05:29:47;;;;;;;14.00;12.35;;;;;;;19.50;69.32;99178.88;4998988;28;20125;-72
2021/06/12 05:32:14;;;;;;;14.70;12.38;;;;;;;19.40;69.11;99175.63;4992695;28;20437;-72
2021/06/12 05:34:40;;;;;;;12.50;10.77;;;;;;;19.33;68.95;99174.75;5006377;28;20104;-69
2021/06/12 05:37:07;;;;;;;13.65;11.55;;;;;;;19.48;68.64;99175.53;4978617;28;20046;-74
2021/06/12 05:39:32;;;;;;;13.10;10.52;;;;;;;19.29;68.53;99170.75;5001232;28;20080;-73
2021/06/12 05:41:58;;;;;;;14.50;11.48;;;;;;;19.28;68.83;99179.81;5005334;28;20025;-72
2021/06/12 05:44:24;;;;;;;13.27;10.85;;;;;;;19.30;69.10;99180.47;5000164;28;20025;-72
2021/06/12 05:46:50;;;;;;;12.05;10.48;;;;;;;19.33;68.80;99174.75;5007895;28;20119;-71
2021/06/12 05:49:17;;;;;;;12.75;10.30;;;;;;;19.53;68.63;99181.16;5003637;28;20069;-71
2021/06/12 05:51:43;;;;;;;12.82;10.60;;;;;;;19.93;66.70;99177.28;5000911;28;20034;-75
2021/06/12 05:54:09;;;;;;;12.02;9.95;;;;;;;20.27;65.06;99175.72;4998379;28;20115;-71
2021/06/12 05:56:35;;;;;;;10.23;9.02;;;;;;;20.68;64.44;99174.97;5010130;28;20188;-72
2021/06/12 05:59:01;;;;;;;9.88;8.88;;;;;;;21.04;63.04;99167.78;5007545;28;20058;-75
2021/06/12 06:01:26;;;;;;;12.00;9.63;;;;;;;20.80;63.17;99168.06;4992245;28;20460;-74
2021/06/12 06:03:53;;;;;;;21.42;19.15;;;;;;;20.82;63.07;99174.06;5005752;28;20030;-75
2021/06/12 06:06:19;;;;;;;10.83;9.77;;;;;;;20.47;63.23;99168.66;4996932;28;20045;-75
2021/06/12 06:08:45;;;;;;;9.20;8.30;;;;;;;20.22;64.38;99168.22;5000153;28;20042;-75
2021/06/12 06:11:11;;;;;;;10.57;9.10;;;;;;;20.39;64.77;99168.78;5000902;28;20033;-75
2021/06/12 06:13:41;;;;;;;10.50;8.18;;;;;;;20.58;63.19;99158.38;5001671;28;20049;-75
2021/06/12 06:16:07;;;;;;;8.68;7.57;;;;;;;20.87;62.58;99168.09;4994830;28;20086;-73
2021/06/12 06:18:34;;;;;;;10.88;8.25;;;;;;;21.03;62.01;99161.56;4992476;28;20131;-73
2021/06/12 06:21:19;;;;;;;8.60;7.63;;;;;;;20.55;63.11;99161.44;5006896;28;20139;-72
2021/06/12 06:23:45;;;;;;;10.35;8.95;;;;;;;20.34;63.97;99168.53;4995127;28;20049;-74
2021/06/12 06:26:11;;;;;;;10.30;9.20;;;;;;;20.26;64.61;99160.63;4995860;28;20030;-72
2021/06/12 06:28:55;;;;;;;12.40;8.77;;;;;;;20.10;65.08;99167.94;5001639;28;20084;-73
2021/06/12 06:31:21;;;;;;;9.45;8.55;;;;;;;20.33;64.71;99150.75;4998260;28;20042;-71
2021/06/12 06:33:47;;;;;;;9.82;8.52;;;;;;;20.62;63.40;99159.63;4999138;28;20537;-71
2021/06/12 06:36:13;;;;;;;9.35;8.35;;;;;;;21.20;61.82;99147.75;4996405;28;20038;-74
2021/06/12 06:38:40;;;;;;;9.05;8.13;;;;;;;22.63;58.93;99141.38;4999937;28;20049;-71
2021/06/12 06:41:07;;;;;;;8.75;7.90;;;;;;;24.91;52.67;99134.53;4998835;28;20049;-73
2021/06/12 06:43:33;;;;;;;9.98;8.35;;;;;;;26.00;49.08;99136.41;5001838;28;20484;-75
2021/06/12 06:45:59;;;;;;;8.40;7.70;;;;;;;25.37;49.22;99136.91;4999495;28;20474;-76
2021/06/12 06:48:25;;;;;;;7.63;7.00;;;;;;;25.76;48.99;99130.13;5001924;28;20065;-75
2021/06/12 06:50:51;;;;;;;6.10;5.50;;;;;;;24.73;49.63;99137.25;4995692;28;20038;-76
2021/06/12 06:53:17;;;;;;;7.07;6.38;;;;;;;23.69;51.19;99146.56;4998931;28;20061;-72
2021/06/12 06:55:43;;;;;;;6.85;6.15;;;;;;;24.10;51.41;99139.03;4999374;28;20400;-73
2021/06/12 06:58:09;;;;;;;7.82;6.40;;;;;;;25.09;49.30;99133.69;4998503;28;20049;-74
2021/06/12 07:00:35;;;;;;;10.05;6.28;;;;;;;26.75;45.66;99134.09;4998010;28;20044;-77
2021/06/12 07:03:01;;;;;;;6.97;5.80;;;;;;;27.54;43.90;99130.03;4995000;28;20042;-78
2021/06/12 07:05:28;;;;;;;9.23;7.00;;;;;;;25.88;46.92;99138.25;4997488;28;20034;-77
2021/06/12 07:07:54;;;;;;;7.10;6.40;;;;;;;25.27;49.13;99146.41;5001493;28;20280;-78
2021/06/12 07:10:20;;;;;;;7.50;6.30;;;;;;;25.21;48.87;99141.88;4999702;28;20077;-76
2021/06/12 07:12:46;;;;;;;7.72;7.03;;;;;;;24.77;49.52;99141.16;5001084;28;20041;-73
2021/06/12 07:15:13;;;;;;;7.90;7.05;;;;;;;24.45;50.70;99133.09;5006605;28;20510;-74
2021/06/12 07:17:39;;;;;;;8.93;6.35;;;;;;;24.11;51.21;99138.81;5000182;28;20061;-74
2021/06/12 07:20:07;;;;;;;7.32;6.63;;;;;;;23.62;51.89;99135.81;5001215;28;20038;-72
2021/06/12 07:22:33;;;;;;;9.80;7.22;;;;;;;23.12;53.34;99128.34;5013973;28;20068;-74
2021/06/12 07:24:59;;;;;;;6.68;6.07;;;;;;;22.65;54.47;99138.47;4995139;28;20034;-77
2021/06/12 07:27:25;;;;;;;8.05;5.88;;;;;;;22.30;55.94;99132.25;5008664;28;20551;-75
2021/06/12 07:29:51;;;;;;;6.43;5.40;;;;;;;22.12;55.70;99138.28;5007854;28;20121;-75
2021/06/12 07:32:17;;;;;;;5.78;5.22;;;;;;;22.27;55.12;99134.53;5007893;28;20045;-74
2021/06/12 07:34:43;;;;;;;6.07;5.50;;;;;;;22.25;55.40;99134.72;5013287;28;20042;-75
2021/06/12 07:37:09;;;;;;;6.05;5.55;;;;;;;22.31;55.68;99135.78;5002727;28;20030;-76
2021/06/12 07:39:35;;;;;;;7.45;6.20;;;;;;;22.32;55.69;99141.97;5012308;28;20164;-73
2021/06/12 07:42:01;;;;;;;7.10;6.38;;;;;;;22.28;55.71;99134.34;4994961;28;20050;-74
2021/06/12 07:44:27;;;;;;;7.45;6.68;;;;;;;22.25;56.23;99132.03;4994340;28;20126;-73
2021/06/12 07:46:52;;;;;;;7.28;6.60;;;;;;;22.09;56.67;99136.00;4994988;28;20026;-73
2021/06/12 07:49:18;;;;;;;8.45;6.55;;;;;;;21.91;57.89;99135.78;4994929;28;20034;-73
2021/06/12 07:51:44;;;;;;;7.47;6.78;;;;;;;21.81;57.66;99136.19;5008295;28;20064;-71
2021/06/12 07:54:11;;;;;;;7.50;6.80;;;;;;;21.53;58.64;99144.38;5034093;28;20049;-74
2021/06/12 07:56:37;;;;;;;6.97;5.88;;;;;;;21.39;58.80;99127.38;5033263;28;20038;-72
2021/06/12 07:59:04;;;;;;;6.30;5.70;;;;;;;21.36;58.86;99133.97;5010135;28;20483;-73
2021/06/12 08:01:30;;;;;;;7.22;6.57;;;;;;;21.31;59.25;99131.88;5011277;28;20038;-74
2021/06/12 08:03:56;;;;;;;6.07;5.47;;;;;;;21.32;58.95;99135.41;5013308;28;20503;-71
2021/06/12 08:06:22;;;;;;;6.55;5.95;;;;;;;21.54;58.79;99135.28;5014566;28;20109;-73
2021/06/12 08:08:48;;;;;;;9.00;6.63;;;;;;;21.90;58.16;99129.56;5012990;28;20042;-78
2021/06/12 08:11:14;;;;;;;6.47;5.75;;;;;;;22.34;56.94;99127.25;5023031;28;20106;-71
2021/06/12 08:13:40;;;;;;;7.60;6.30;;;;;;;22.55;56.48;99130.81;5024016;28;20473;-72
2021/06/12 08:16:06;;;;;;;7.35;6.65;;;;;;;22.93;55.15;99132.78;5009977;28;20045;-73
2021/06/12 08:18:33;;;;;;;7.25;6.63;;;;;;;23.01;54.78;99137.13;4997612;28;20042;-77
2021/06/12 08:20:59;;;;;;;7.27;6.60;;;;;;;23.39;54.21;99126.38;5014256;28;20041;-74
2021/06/12 08:23:25;;;;;;;6.93;6.22;;;;;;;23.56;53.86;99128.56;5013654;28;20300;-73
2021/06/12 08:25:51;;;;;;;6.45;5.93;;;;;;;22.78;54.51;99139.25;5012960;28;20042;-74
2021/06/12 08:28:18;;;;;;;7.10;6.13;;;;;;;22.97;54.65;99135.88;5013748;28;20050;-74
2021/06/12 08:30:44;;;;;;;7.43;6.75;;;;;;;22.96;54.49;99136.94;5013804;28;20585;-74
2021/06/12 08:33:11;;;;;;;6.70;6.03;;;;;;;23.19;54.64;99128.34;5013586;28;20061;-77
2021/06/12 08:35:38;;;;;;;9.05;8.15;;;;;;;23.04;54.63;99142.06;5014039;28;20161;-76
2021/06/12 08:38:13;;;;;;;;;;;;;;;22.93;55.01;99138.19;5013889;28;20409;-83
2021/06/12 08:40:42;;;;;;;7.00;6.30;;;;;;;23.32;54.20;99128.28;4976908;28;20354;-87
2021/06/12 08:43:41;;;;;;;7.20;6.50;;;;;;;23.53;54.13;99131.72;4999056;28;20035;-81
2021/06/12 08:46:30;;;;;;;8.10;7.40;;;;;;;22.93;54.55;99128.22;5024976;28;20038;-83
2021/06/12 08:48:58;;;;;;;7.38;6.68;;;;;;;22.41;56.56;99130.00;4998908;28;20033;-73
2021/06/12 08:51:24;;;;;;;8.55;7.75;;;;;;;22.79;55.85;99131.97;5001372;28;20555;-77
2021/06/12 08:53:51;;;;;;;11.02;8.70;;;;;;;23.09;54.99;99121.53;4993790;28;20045;-75
2021/06/12 08:56:17;;;;;;;8.57;7.78;;;;;;;23.13;55.38;99127.31;4992332;28;20041;-77
2021/06/12 08:58:43;;;;;;;8.77;7.88;;;;;;;23.18;54.87;99126.69;5001380;28;20038;-79
2021/06/12 09:01:09;;;;;;;7.80;7.10;;;;;;;23.06;54.05;99131.91;4998401;28;20173;-76
2021/06/12 09:03:43;;;;;;;7.80;7.10;;;;;;;22.83;54.76;99127.00;5007218;28;20119;-76
2021/06/12 09:06:10;;;;;;;7.70;6.90;;;;;;;22.43;55.45;99128.75;4980460;28;20372;-74
2021/06/12 09:08:40;;;;;;;7.60;6.85;;;;;;;22.25;56.38;99123.13;4985210;28;20045;-74
2021/06/12 09:11:17;;;;;;;8.02;7.32;;;;;;;22.28;56.40;99125.41;5003256;28;20034;-73
2021/06/12 09:13:54;;;;;;;8.70;7.60;;;;;;;22.03;57.10;99127.91;5002415;28;20042;-74
2021/06/12 09:16:23;;;;;;;8.45;7.65;;;;;;;22.12;56.97;99127.50;5005896;28;20413;-73
2021/06/12 09:18:49;;;;;;;8.45;7.65;;;;;;;22.12;57.59;99124.81;5000993;28;20040;-73
2021/06/12 09:21:27;;;;;;;8.10;7.40;;;;;;;21.98;58.40;99132.06;5003554;28;20042;-75
2021/06/12 09:23:54;;;;;;;10.25;8.05;;;;;;;22.06;58.17;99128.31;4998288;28;20355;-73
2021/06/12 09:26:21;;;;;;;8.47;7.67;;;;;;;21.86;58.80;99131.00;5006658;28;20482;-77
2021/06/12 09:29:06;;;;;;;9.60;8.70;;;;;;;21.93;58.59;99133.69;5002714;28;20044;-73
2021/06/12 09:31:31;;;;;;;8.00;7.30;;;;;;;21.87;58.40;99129.13;4998408;28;20042;-77
2021/06/12 09:34:09;;;;;;;8.93;8.05;;;;;;;21.88;58.86;99128.94;4994348;28;20108;-75
2021/06/12 09:36:36;;;;;;;10.50;8.00;;;;;;;21.99;58.86;99127.47;4996118;28;20045;-74
2021/06/12 09:39:10;;;;;;;9.27;8.48;;;;;;;22.21;58.19;99124.59;4994223;28;20042;-73
2021/06/12 09:41:36;;;;;;;8.63;7.82;;;;;;;21.87;58.53;99121.06;5003735;28;20108;-72
2021/06/12 09:44:03;;;;;;;9.38;8.35;;;;;;;21.94;58.01;99122.75;5000864;28;20137;-74
2021/06/12 09:46:30;;;;;;;8.60;7.80;;;;;;;21.95;58.52;99115.47;5000790;28;20041;-74
2021/06/12 09:48:57;;;;;;;8.93;8.13;;;;;;;22.07;58.48;99116.53;5002396;28;20042;-76
2021/06/12 09:51:23;;;;;;;9.80;8.88;;;;;;;22.10;58.24;99120.66;5001076;28;20128;-74
2021/06/12 09:53:50;;;;;;;10.55;9.45;;;;;;;22.09;58.37;99119.00;5008758;28;20112;-78
2021/06/12 09:56:17;;;;;;;9.82;8.93;;;;;;;22.11;58.04;99117.75;4998934;28;20057;-77
2021/06/12 09:58:43;;;;;;;13.00;11.80;;;;;;;21.98;58.76;99109.66;5002405;28;20109;-75
2021/06/12 10:01:14;;;;;;;10.10;8.73;;;;;;;22.00;59.15;99113.00;4996597;28;20053;-74
2021/06/12 10:03:40;;;;;;;9.88;8.95;;;;;;;22.32;58.14;99109.66;4997004;28;20466;-77
2021/06/12 10:06:20;;;;;;;10.63;9.27;;;;;;;22.19;58.00;99113.19;4998365;28;20041;-73
2021/06/12 10:08:49;;;;;;;9.80;8.07;;;;;;;22.60;56.80;99109.44;5001174;28;20033;-73
2021/06/12 10:11:16;;;;;;;11.10;9.85;;;;;;;22.87;56.64;99095.88;4999493;28;20050;-72
2021/06/12 10:13:46;;;;;;;10.63;9.25;;;;;;;22.97;55.76;99106.19;4996340;28;20653;-77
2021/06/12 10:16:13;;;;;;;11.18;9.13;;;;;;;23.22;55.58;99106.34;5003212;28;20030;-79
2021/06/12 10:18:40;;;;;;;10.02;9.02;;;;;;;23.18;54.37;99097.00;4975039;28;20121;-73
2021/06/12 10:21:10;;;;;;;10.55;9.65;;;;;;;23.19;55.04;99098.66;5010827;28;20074;-74
2021/06/12 10:23:41;;;;;;;10.80;9.80;;;;;;;23.47;54.00;99092.91;5012930;28;20048;-73
2021/06/12 10:26:10;;;;;;;9.63;8.73;;;;;;;23.66;52.81;99093.00;5011149;28;20080;-73
2021/06/12 10:28:36;;;;;;;10.07;8.98;;;;;;;23.68;52.93;99086.34;5012189;28;20492;-75
2021/06/12 10:31:10;;;;;;;9.82;8.82;;;;;;;23.58;52.98;99086.00;5012243;28;20125;-73
2021/06/12 10:33:40;;;;;;;11.23;8.98;;;;;;;23.67;52.72;99081.97;5011072;28;20463;-80
2021/06/12 10:36:17;;;;;;;10.45;9.45;;;;;;;23.67;52.87;99084.69;5011102;28;20414;-74
2021/06/12 10:38:44;;;;;;;9.38;8.57;;;;;;;23.70;52.69;99065.34;5010904;28;20107;-76
2021/06/12 10:41:31;;;;;;;8.85;8.15;;;;;;;23.74;50.13;99066.56;5011572;28;20083;-75
2021/06/12 10:44:04;;;;;;;8.23;7.43;;;;;;;23.55;50.56;99072.91;5012239;28;20096;-75
2021/06/12 10:46:33;;;;;;;7.90;7.20;;;;;;;23.97;49.94;99067.84;5011824;28;20382;-74
2021/06/12 10:49:00;;;;;;;8.27;7.57;;;;;;;24.44;48.92;99061.19;5010908;28;20185;-73
2021/06/12 10:51:26;;;;;;;8.90;7.65;;;;;;;25.04;47.68;99055.91;5011663;28;20057;-75
2021/06/12 10:56:41;;;;;;;;;;;;;;;25.01;46.71;99048.25;5012562;28;20269;-73
2021/06/12 10:59:08;;;;;;;9.82;7.75;;;;;;;24.68;47.64;99054.06;5010633;28;19913;-74
2021/06/12 11:01:34;;;;;;;8.73;7.82;;;;;;;24.59;48.10;99047.31;5013591;28;20120;-74
2021/06/12 11:04:17;;;;;;;8.13;7.32;;;;;;;24.47;47.68;99050.72;5031348;28;20051;-74
2021/06/12 11:06:54;;;;;;;8.52;7.72;;;;;;;24.73;46.90;99048.00;5032973;28;20064;-77
2021/06/12 11:09:26;;;;;;;9.80;8.80;;;;;;;25.02;46.36;99041.78;5034994;28;20128;-72
2021/06/12 11:11:54;;;;;;;9.30;7.55;;;;;;;25.28;46.18;99039.75;5014019;28;20034;-74
2021/06/12 11:14:25;;;;;;;8.25;7.53;;;;;;;25.20;46.95;99031.97;5015161;28;20069;-73
2021/06/12 11:17:12;;;;;;;9.13;8.15;;;;;;;25.14;46.74;99031.00;5002874;28;20037;-76
2021/06/12 11:19:45;;;;;;;;;;;;;;;24.76;46.51;99015.91;5005612;28;20061;-76
2021/06/12 11:22:37;;;;;;;11.55;10.13;;;;;;;24.52;46.95;99025.72;5003163;28;20060;-76
2021/06/12 11:25:27;;;;;;;9.77;8.50;;;;;;;24.12;47.46;99015.38;5003312;28;20080;-77
2021/06/12 11:28:15;;;;;;;9.73;8.68;;;;;;;24.09;48.05;99021.19;5003268;28;20038;-77
2021/06/12 11:30:41;;;;;;;16.20;14.18;;;;;;;24.03;49.07;99015.63;5005283;28;20140;-78
2021/06/12 11:33:08;;;;;;;14.68;10.52;;;;;;;24.15;49.13;99020.31;5017595;28;20128;-81